createdAt,value
2019-03-17T00:03:49.060Z,9.70
2019-03-17T00:06:37.042Z,9.60
2019-03-17T00:09:24.941Z,9.70
2019-03-17T00:12:12.874Z,9.70
2019-03-17T00:15:04.632Z,9.70
2019-03-17T00:17:36.317Z,9.70
2019-03-17T00:20:17.554Z,9.70
2019-03-17T00:22:58.166Z,9.80
2019-03-17T00:25:39.765Z,9.80
2019-03-17T00:28:20.128Z,9.80
2019-03-17T00:31:00.568Z,9.80
2019-03-17T00:33:41.894Z,9.70
2019-03-17T00:36:23.021Z,9.80
2019-03-17T00:38:51.662Z,9.70
2019-03-17T00:41:20.175Z,9.80
2019-03-17T00:43:48.792Z,9.80
2019-03-17T00:46:17.345Z,9.80
2019-03-17T00:48:45.941Z,9.80
2019-03-17T00:51:14.557Z,9.80
2019-03-17T00:53:43.620Z,9.80
2019-03-17T00:56:12.264Z,9.80
2019-03-17T00:58:40.852Z,9.80
2019-03-17T01:01:28.756Z,9.80
2019-03-17T01:07:09.869Z,9.80
2019-03-17T01:09:57.763Z,9.80
2019-03-17T01:12:45.697Z,9.70
2019-03-17T01:15:33.617Z,9.70
2019-03-17T01:18:14.781Z,9.70
2019-03-17T01:20:56.432Z,9.60
2019-03-17T01:23:37.264Z,9.60
2019-03-17T01:26:18.508Z,9.60
2019-03-17T01:28:59.730Z,9.60
2019-03-17T01:31:40.472Z,9.60
2019-03-17T01:34:20.857Z,9.60
2019-03-17T01:37:02.011Z,9.60
2019-03-17T01:39:42.497Z,9.60
2019-03-17T01:42:22.962Z,9.60
2019-03-17T01:45:03.379Z,9.60
2019-03-17T01:47:43.840Z,9.70
2019-03-17T01:50:24.501Z,9.70
2019-03-17T01:53:05.716Z,9.70
2019-03-17T01:55:46.628Z,9.70
2019-03-17T01:58:27.067Z,9.70
2019-03-17T02:01:08.289Z,9.70
2019-03-17T02:03:49.213Z,9.70
2019-03-17T02:06:29.817Z,9.70
2019-03-17T02:09:11.026Z,9.70
2019-03-17T02:11:52.080Z,9.70
2019-03-17T02:14:32.689Z,9.80
2019-03-17T02:17:13.158Z,9.70
2019-03-17T02:19:54.111Z,9.70
2019-03-17T02:22:35.137Z,9.70
2019-03-17T02:25:15.868Z,9.80
2019-03-17T02:27:57.501Z,9.80
2019-03-17T02:30:38.257Z,9.80
2019-03-17T02:33:19.161Z,9.80
2019-03-17T02:36:00.145Z,9.80
2019-03-17T02:38:40.549Z,9.90
2019-03-17T02:41:21.558Z,9.80
2019-03-17T02:44:02.040Z,9.80
2019-03-17T02:46:42.865Z,9.90
2019-03-17T02:49:24.051Z,9.90
2019-03-17T02:52:04.817Z,9.90
2019-03-17T02:54:46.094Z,9.90
2019-03-17T02:57:14.678Z,9.90
2019-03-17T02:59:43.239Z,9.90
2019-03-17T03:02:11.862Z,9.90
2019-03-17T03:04:59.794Z,9.90
2019-03-17T03:10:41.185Z,10.00
2019-03-17T03:16:15.778Z,9.90
2019-03-17T03:18:57.089Z,9.90
2019-03-17T03:21:37.520Z,9.90
2019-03-17T03:24:18.840Z,9.90
2019-03-17T03:26:59.677Z,9.90
2019-03-17T03:29:40.753Z,9.90
2019-03-17T03:32:21.642Z,9.80
2019-03-17T03:34:50.224Z,9.80
2019-03-17T03:37:18.785Z,9.80
2019-03-17T03:39:47.376Z,9.80
2019-03-17T03:42:16.580Z,9.90
2019-03-17T03:44:45.137Z,9.80
2019-03-17T03:47:13.804Z,9.70
2019-03-17T03:53:08.601Z,9.70
2019-03-17T03:55:56.502Z,9.70
2019-03-17T03:58:44.820Z,9.70
2019-03-17T04:01:32.757Z,9.70
2019-03-17T04:04:20.656Z,9.60
2019-03-17T04:10:01.933Z,9.60
2019-03-17T04:12:49.876Z,9.60
2019-03-17T04:15:37.773Z,9.60
2019-03-17T04:21:19.644Z,9.50
2019-03-17T04:24:07.585Z,9.60
2019-03-17T04:26:55.509Z,9.60
2019-03-17T04:29:43.481Z,9.60
2019-03-17T04:32:31.441Z,9.60
2019-03-17T04:35:19.316Z,9.60
2019-03-17T04:38:08.055Z,9.70
2019-03-17T04:40:55.957Z,9.70
2019-03-17T04:43:43.878Z,9.70
2019-03-17T04:46:31.773Z,9.80
2019-03-17T04:49:19.705Z,9.80
2019-03-17T04:52:08.092Z,9.80
2019-03-17T04:54:56.020Z,9.80
2019-03-17T04:57:43.937Z,9.80
2019-03-17T05:00:31.872Z,9.80
2019-03-17T05:03:19.769Z,9.90
2019-03-17T05:06:08.616Z,9.90
2019-03-17T05:08:56.517Z,9.90
2019-03-17T05:11:44.449Z,9.90
2019-03-17T05:14:32.384Z,9.90
2019-03-17T05:17:20.309Z,9.90
2019-03-17T05:20:09.395Z,9.80
2019-03-17T05:22:50.524Z,9.80
2019-03-17T05:25:31.594Z,9.70
2019-03-17T05:28:12.900Z,9.60
2019-03-17T05:30:53.548Z,9.60
2019-03-17T05:33:34.572Z,9.50
2019-03-17T05:36:15.354Z,9.50
2019-03-17T05:38:56.488Z,9.40
2019-03-17T05:41:25.060Z,9.40
2019-03-17T05:43:53.637Z,9.30
2019-03-17T05:46:22.193Z,9.30
2019-03-17T05:49:10.132Z,9.20
2019-03-17T05:51:58.032Z,9.20
2019-03-17T05:54:45.981Z,9.20
2019-03-17T05:57:33.879Z,9.10
2019-03-17T06:00:21.804Z,9.10
2019-03-17T06:06:16.601Z,9.00
2019-03-17T06:09:25.472Z,9.00
2019-03-17T06:12:13.491Z,9.00
2019-03-17T06:15:01.484Z,9.00
2019-03-17T06:17:49.530Z,9.00
2019-03-17T06:20:38.738Z,9.00
2019-03-17T06:26:35.214Z,9.00
2019-03-17T06:29:37.125Z,8.90
2019-03-17T06:40:55.239Z,8.80
2019-03-17T06:43:43.131Z,8.80
2019-03-17T06:46:31.202Z,8.80
2019-03-17T06:49:31.117Z,8.70
2019-03-17T06:52:09.504Z,8.80
2019-03-17T06:54:57.543Z,8.60
2019-03-17T07:00:52.732Z,8.20
2019-03-17T07:03:40.658Z,8.10
2019-03-17T07:06:28.555Z,8.10
2019-03-17T07:09:16.485Z,8.00
2019-03-17T07:12:04.464Z,8.00
2019-03-17T07:14:52.396Z,8.00
2019-03-17T07:17:40.332Z,7.90
2019-03-17T07:20:28.384Z,7.90
2019-03-17T07:23:16.327Z,7.80
2019-03-17T07:26:16.005Z,7.80
2019-03-17T07:28:53.901Z,7.70
2019-03-17T07:31:41.835Z,7.70
2019-03-17T07:34:29.775Z,7.70
2019-03-17T07:37:17.965Z,7.70
2019-03-17T07:40:26.737Z,7.60
2019-03-17T07:43:15.007Z,7.50
2019-03-17T07:46:14.660Z,7.40
2019-03-17T07:48:52.481Z,7.40
2019-03-17T07:51:21.140Z,7.50
2019-03-17T07:53:49.692Z,7.50
2019-03-17T07:56:37.620Z,7.50
2019-03-17T07:59:25.516Z,7.50
2019-03-17T08:02:13.453Z,7.60
2019-03-17T08:05:01.385Z,7.60
2019-03-17T08:07:49.303Z,7.60
2019-03-17T08:10:37.207Z,7.60
2019-03-17T08:13:25.472Z,7.60
2019-03-17T08:16:13.621Z,7.70
2019-03-17T08:19:01.629Z,7.70
2019-03-17T08:21:49.532Z,7.50
2019-03-17T08:24:37.480Z,7.50
2019-03-17T08:27:25.368Z,7.50
2019-03-17T08:30:32.636Z,7.50
2019-03-17T08:36:13.596Z,7.60
2019-03-17T08:41:56.985Z,7.60
2019-03-17T08:44:25.674Z,7.70
2019-03-17T08:47:13.624Z,7.70
2019-03-17T08:50:01.776Z,8.00
2019-03-17T08:52:49.834Z,8.10
2019-03-17T08:55:37.761Z,8.20
2019-03-17T08:58:26.243Z,8.40
2019-03-17T09:07:36.926Z,8.70
2019-03-17T09:13:33.915Z,8.70
2019-03-17T09:19:11.520Z,8.50
2019-03-17T09:21:52.928Z,8.60
2019-03-17T09:24:34.911Z,8.70
2019-03-17T09:27:07.374Z,8.80
2019-03-17T09:30:00.372Z,8.70
2019-03-17T09:32:49.745Z,8.70
2019-03-17T09:35:37.577Z,8.60
2019-03-17T09:38:25.509Z,8.70
2019-03-17T09:41:13.525Z,8.70
2019-03-17T09:49:49.167Z,8.50
2019-03-17T09:52:37.164Z,8.50
2019-03-17T09:55:25.092Z,8.50
2019-03-17T09:58:12.998Z,8.40
2019-03-17T10:01:01.072Z,8.30
2019-03-17T10:03:48.973Z,8.40
2019-03-17T10:06:36.909Z,8.50
2019-03-17T10:09:24.809Z,8.70
2019-03-17T10:12:12.748Z,8.70
2019-03-17T10:15:00.646Z,8.70
2019-03-17T10:17:48.584Z,8.70
2019-03-17T10:20:36.481Z,8.50
2019-03-17T10:23:17.459Z,8.60
2019-03-17T10:25:58.497Z,8.80
2019-03-17T10:28:39.213Z,8.90
2019-03-17T10:31:19.796Z,9.20
2019-03-17T10:34:00.609Z,9.30
2019-03-17T10:36:41.354Z,9.40
2019-03-17T10:39:22.214Z,9.70
2019-03-17T10:42:03.324Z,9.80
2019-03-17T10:44:44.077Z,9.90
2019-03-17T10:47:25.276Z,9.90
2019-03-17T10:50:06.777Z,10.00
2019-03-17T10:52:47.753Z,10.10
2019-03-17T10:55:28.250Z,10.20
2019-03-17T10:58:09.406Z,10.30
2019-03-17T11:00:50.600Z,10.30
2019-03-17T11:03:31.765Z,10.20
2019-03-17T11:06:12.897Z,10.00
2019-03-17T11:08:54.088Z,10.10
2019-03-17T11:11:35.115Z,10.00
2019-03-17T11:14:16.241Z,10.10
2019-03-17T11:16:57.541Z,10.40
2019-03-17T11:19:38.663Z,10.40
2019-03-17T11:22:19.680Z,10.60
2019-03-17T11:25:00.455Z,10.40
2019-03-17T11:27:41.654Z,10.10
2019-03-17T11:30:22.121Z,10.00
2019-03-17T11:33:03.390Z,10.00
2019-03-17T11:35:44.509Z,10.00
2019-03-17T11:38:25.062Z,9.70
2019-03-17T11:41:05.971Z,9.60
2019-03-17T11:43:46.761Z,9.60
2019-03-17T11:46:27.905Z,9.70
2019-03-17T11:49:08.614Z,9.70
2019-03-17T11:51:50.117Z,9.90
2019-03-17T11:54:31.590Z,9.80
2019-03-17T11:57:12.266Z,9.90
2019-03-17T11:59:52.849Z,9.90
2019-03-17T12:02:33.519Z,9.90
2019-03-17T12:05:13.854Z,10.00
2019-03-17T12:07:54.733Z,10.00
2019-03-17T12:10:35.113Z,10.00
2019-03-17T12:13:15.533Z,9.90
2019-03-17T12:15:56.440Z,9.70
2019-03-17T12:18:37.481Z,9.80
2019-03-17T12:21:18.680Z,9.80
2019-03-17T12:23:59.472Z,9.90
2019-03-17T12:26:40.477Z,9.90
2019-03-17T12:29:21.671Z,9.90
2019-03-17T12:32:02.048Z,9.70
2019-03-17T12:34:42.662Z,9.40
2019-03-17T12:37:23.456Z,9.10
2019-03-17T12:40:02.153Z,9.10
2019-03-17T12:42:22.247Z,9.00
2019-03-17T12:44:50.831Z,9.10
2019-03-17T12:47:38.751Z,9.10
2019-03-17T12:50:46.438Z,9.30
2019-03-17T12:53:34.333Z,9.50
2019-03-17T12:56:22.264Z,9.80
2019-03-17T12:59:10.196Z,9.90
2019-03-17T13:01:58.093Z,10.00
2019-03-17T13:04:46.050Z,10.00
2019-03-17T13:07:33.952Z,10.00
2019-03-17T13:10:22.300Z,10.00
2019-03-17T13:13:10.217Z,10.10
2019-03-17T13:15:38.809Z,10.00
2019-03-17T13:18:07.364Z,9.90
2019-03-17T13:20:35.958Z,10.10
2019-03-17T13:23:04.514Z,10.20
2019-03-17T13:25:52.449Z,10.30
2019-03-17T13:28:40.356Z,10.30
2019-03-17T13:31:28.285Z,10.20
2019-03-17T13:34:16.205Z,10.10
2019-03-17T13:37:04.216Z,10.20
2019-03-17T13:39:52.108Z,10.50
2019-03-17T13:42:40.055Z,10.80
2019-03-17T13:45:27.993Z,10.90
2019-03-17T13:48:15.942Z,10.90
2019-03-17T13:51:03.977Z,10.90
2019-03-17T13:56:47.637Z,10.70
2019-03-17T13:59:35.605Z,10.70
2019-03-17T14:02:23.672Z,10.70
2019-03-17T14:05:32.301Z,10.50
2019-03-17T14:08:20.273Z,10.30
2019-03-17T14:11:08.285Z,10.30
2019-03-17T14:14:10.274Z,10.30
2019-03-17T14:19:39.633Z,9.90
2019-03-17T14:22:27.594Z,9.80
2019-03-17T14:25:08.092Z,9.80
2019-03-17T14:27:49.168Z,9.70
2019-03-17T14:30:30.285Z,9.50
2019-03-17T14:33:11.381Z,9.40
2019-03-17T14:35:52.198Z,9.30
2019-03-17T14:38:35.041Z,9.00
2019-03-17T14:41:16.390Z,9.00
2019-03-17T14:43:57.206Z,8.80
2019-03-17T14:46:39.214Z,8.90
2019-03-17T14:49:22.694Z,8.80
2019-03-17T14:52:04.420Z,8.60
2019-03-17T14:57:44.644Z,8.20
2019-03-17T15:00:25.139Z,8.20
2019-03-17T15:03:05.997Z,8.00
2019-03-17T15:11:47.617Z,8.20
2019-03-17T15:14:35.585Z,8.40
2019-03-17T15:17:44.242Z,8.50
2019-03-17T15:23:06.210Z,8.60
2019-03-17T15:25:49.119Z,8.70
2019-03-17T15:31:49.572Z,8.70
2019-03-17T15:37:22.283Z,8.70
2019-03-17T15:39:53.494Z,8.60
2019-03-17T15:42:30.817Z,8.60
2019-03-17T15:45:20.157Z,8.70
2019-03-17T15:51:03.064Z,8.70
2019-03-17T15:56:44.473Z,8.60
2019-03-17T16:02:07.619Z,8.50
2019-03-17T16:04:56.215Z,8.40
2019-03-17T16:10:39.788Z,8.30
2019-03-17T16:13:29.748Z,8.30
2019-03-17T16:16:54.007Z,8.20
2019-03-17T16:19:29.989Z,8.30
2019-03-17T16:22:17.892Z,8.10
2019-03-17T16:28:29.554Z,8.20
2019-03-17T16:33:48.013Z,8.10
2019-03-17T16:36:21.106Z,8.20
2019-03-17T16:38:49.988Z,8.10
2019-03-17T16:41:42.459Z,8.20
2019-03-17T16:47:35.944Z,8.20
2019-03-17T16:49:47.424Z,8.20
2019-03-17T16:52:57.853Z,8.20
2019-03-17T16:59:13.003Z,8.10
2019-03-17T17:02:24.542Z,8.10
2019-03-17T17:05:13.508Z,8.10
2019-03-17T17:08:01.426Z,8.10
2019-03-17T17:14:11.070Z,7.90
2019-03-17T17:19:58.615Z,8.00
2019-03-17T17:22:41.274Z,8.10
2019-03-17T17:25:15.829Z,8.20
2019-03-17T17:27:48.359Z,8.20
2019-03-17T17:30:23.790Z,8.10
2019-03-17T17:33:11.852Z,8.00
2019-03-17T17:35:59.803Z,8.00
2019-03-17T17:38:47.856Z,8.00
2019-03-17T17:41:35.783Z,8.20
2019-03-17T17:44:23.667Z,8.30
2019-03-17T17:47:11.609Z,8.10
2019-03-17T17:49:59.509Z,8.00
2019-03-17T17:52:47.556Z,7.90
2019-03-17T17:55:35.538Z,7.80
2019-03-17T17:58:35.042Z,7.70
2019-03-17T18:01:13.077Z,7.70
2019-03-17T18:07:07.896Z,7.60
2019-03-17T18:10:08.185Z,7.50
2019-03-17T18:12:45.966Z,7.50
2019-03-17T18:15:33.979Z,7.40
2019-03-17T18:18:21.871Z,7.30
2019-03-17T18:21:09.796Z,7.30
2019-03-17T18:23:57.688Z,7.20
2019-03-17T18:26:45.626Z,7.20
2019-03-17T18:29:26.649Z,7.00
2019-03-17T18:32:07.288Z,7.00
2019-03-17T18:34:50.525Z,7.00
2019-03-17T18:37:31.017Z,7.00
2019-03-17T18:40:12.194Z,7.00
2019-03-17T18:42:53.083Z,7.00
2019-03-17T18:45:32.078Z,6.90
2019-03-17T18:48:00.641Z,6.90
2019-03-17T18:50:29.298Z,6.80
2019-03-17T18:53:17.212Z,6.80
2019-03-17T18:56:05.213Z,6.70
2019-03-17T18:58:53.192Z,6.60
2019-03-17T19:02:02.139Z,6.50
2019-03-17T19:04:50.237Z,6.50
2019-03-17T19:07:38.129Z,6.50
2019-03-17T19:10:26.138Z,6.50
2019-03-17T19:13:14.185Z,6.50
2019-03-17T19:16:02.121Z,6.50
2019-03-17T19:18:50.135Z,6.40
2019-03-17T19:21:38.152Z,6.40
2019-03-17T19:24:40.033Z,6.30
2019-03-17T19:27:15.781Z,6.20
2019-03-17T19:30:24.470Z,6.20
2019-03-17T19:33:12.402Z,6.10
2019-03-17T19:36:00.307Z,6.00
2019-03-17T19:38:48.244Z,5.90
2019-03-17T19:41:36.259Z,5.80
2019-03-17T19:44:24.223Z,5.70
2019-03-17T19:47:12.127Z,5.70
2019-03-17T19:50:00.068Z,5.60
2019-03-17T19:52:47.977Z,5.70
2019-03-17T19:55:37.536Z,5.70
2019-03-17T19:58:25.429Z,5.70
2019-03-17T20:01:13.356Z,5.60
2019-03-17T20:04:01.262Z,5.50
2019-03-17T20:06:49.193Z,5.40
2019-03-17T20:09:17.843Z,5.40
2019-03-17T20:11:46.554Z,5.30
2019-03-17T20:14:15.149Z,5.20
2019-03-17T20:16:43.707Z,5.20
2019-03-17T20:19:12.261Z,5.10
2019-03-17T20:22:00.209Z,5.10
2019-03-17T20:27:48.311Z,5.10
2019-03-17T20:30:29.096Z,5.10
2019-03-17T20:33:09.789Z,5.10
2019-03-17T20:35:57.412Z,5.10
2019-03-17T20:38:39.098Z,5.00
2019-03-17T20:41:20.115Z,5.00
2019-03-17T20:44:05.386Z,5.00
2019-03-17T20:46:47.668Z,5.10
2019-03-17T20:49:30.311Z,5.10
2019-03-17T20:52:11.371Z,5.10
2019-03-17T20:54:52.313Z,5.10
2019-03-17T20:57:20.974Z,5.10
2019-03-17T21:00:30.116Z,5.10
2019-03-17T21:03:18.366Z,5.10
2019-03-17T21:06:06.430Z,5.00
2019-03-17T21:08:54.828Z,5.00
2019-03-17T21:11:42.905Z,4.90
2019-03-17T21:14:42.675Z,4.90
2019-03-17T21:20:34.698Z,4.80
2019-03-17T21:23:22.620Z,4.80
2019-03-17T21:26:10.668Z,4.80
2019-03-17T21:28:52.074Z,4.80
2019-03-17T21:31:32.784Z,4.80
2019-03-17T21:34:01.337Z,4.80
2019-03-17T21:36:29.992Z,4.90
2019-03-17T21:38:58.683Z,4.90
2019-03-17T21:41:46.554Z,4.90
2019-03-17T21:44:34.542Z,4.80
2019-03-17T21:50:35.456Z,4.60
2019-03-17T21:53:23.573Z,4.70
2019-03-17T21:56:11.591Z,4.70
2019-03-17T21:58:40.621Z,4.60
2019-03-17T22:01:50.655Z,4.60
2019-03-17T22:04:40.293Z,4.60
2019-03-17T22:07:28.225Z,4.50
2019-03-17T22:10:36.128Z,4.50
2019-03-17T22:13:24.031Z,4.50
2019-03-17T22:16:11.950Z,4.50
2019-03-17T22:19:00.340Z,4.60
2019-03-17T22:21:48.504Z,4.60
2019-03-17T22:24:36.444Z,4.60
2019-03-17T22:27:24.379Z,4.60
2019-03-17T22:30:33.027Z,4.50
2019-03-17T22:33:20.925Z,4.50
2019-03-17T22:36:08.860Z,4.50
2019-03-17T22:38:56.652Z,4.50
2019-03-17T22:41:44.556Z,4.50
2019-03-17T22:44:32.788Z,4.50
2019-03-17T22:47:20.681Z,4.40
2019-03-17T22:50:29.337Z,4.50
2019-03-17T22:52:57.920Z,4.40
2019-03-17T22:55:26.478Z,4.40
2019-03-17T22:57:55.061Z,4.50
2019-03-17T23:00:31.233Z,4.50
2019-03-17T23:03:19.181Z,4.50
2019-03-17T23:06:07.115Z,4.20
2019-03-17T23:08:55.038Z,4.50
2019-03-17T23:11:42.961Z,4.50
2019-03-17T23:14:36.659Z,4.60
2019-03-17T23:17:20.495Z,4.60
2019-03-17T23:20:29.132Z,4.70
2019-03-17T23:23:17.054Z,4.60
2019-03-17T23:26:04.997Z,4.70
2019-03-17T23:28:45.806Z,4.70
2019-03-17T23:31:26.926Z,4.80
2019-03-17T23:34:07.244Z,4.80
2019-03-17T23:36:48.333Z,4.90
2019-03-17T23:39:28.951Z,4.90
2019-03-17T23:41:57.533Z,4.90
2019-03-17T23:44:49.287Z,4.90
2019-03-17T23:47:35.014Z,4.70
2019-03-17T23:53:11.705Z,4.60
2019-03-17T23:55:59.622Z,4.70
2019-03-17T23:58:47.657Z,4.70
